Terminal Aerodrome Forecast
Issued by NWS

Home | Current Version | Previous Version | Text Only | Print | Product List | Glossary On
Versions: 1 2 3 4 5 6 7 8 9 10 11 12 13 14 15 16
000
FTAK31 PANC 270523
TAFADQ
TAF
PADQ 270523Z 2706/2806 20010KT P6SM FEW035
     FM271500 18012G18KT P6SM VCSH SCT030 BKN045
     FM272000 23012KT P6SM VCSH SCT025 BKN040
     FM272300 25010KT P6SM SCT045
     FM280400 22006KT P6SM FEW045 BKN120=

USA.gov is the U.S. government's official web portal to all federal, state and local government web resources and services.